Time;durP1;ratioP1;P1;durP2;ratioP2;P2;SDS_P1;SDS_P2;PMS_P1;PMS_P2;Temp;Humidity;BMP_temperature;BMP_pressure;BME280_temperature;BME280_humidity;BME280_pressure;Samples;Min_cycle;Max_cycle;Signal;HPM_P1;HPM_P2
2024/03/06 00:02:18;;;;;;;6.03;5.53;;;15.90;65.10;;;;;;4988145;28;20046;-80
2024/03/06 00:04:44;;;;;;;5.82;5.32;;;15.80;65.80;;;;;;4985766;28;20030;-79
2024/03/06 00:07:10;;;;;;;5.30;4.90;;;15.90;65.90;;;;;;4987161;28;20058;-80
2024/03/06 00:09:36;;;;;;;5.50;5.10;;;15.80;65.60;;;;;;4982749;28;20035;-80
2024/03/06 00:12:02;;;;;;;5.50;5.10;;;15.80;65.50;;;;;;4985037;28;20069;-80
2024/03/06 00:14:27;;;;;;;5.85;5.35;;;15.80;65.40;;;;;;4984737;28;20042;-80
2024/03/06 00:16:55;;;;;;;5.53;5.03;;;15.80;65.90;;;;;;4985504;28;20042;-80
2024/03/06 00:19:21;;;;;;;5.03;4.63;;;15.80;65.70;;;;;;4985484;28;20113;-80
2024/03/06 00:21:46;;;;;;;5.32;4.85;;;15.80;64.90;;;;;;4985763;28;20133;-79
2024/03/06 00:24:15;;;;;;;5.10;4.70;;;15.80;65.10;;;;;;4987141;28;20045;-80
2024/03/06 00:26:41;;;;;;;5.38;4.95;;;15.80;65.20;;;;;;4984550;28;20101;-78
2024/03/06 00:29:09;;;;;;;5.65;5.07;;;15.70;64.90;;;;;;4985387;28;20125;-80
2024/03/06 00:31:35;;;;;;;5.55;5.07;;;15.80;65.00;;;;;;5000990;28;20049;-80
2024/03/06 00:34:00;;;;;;;5.47;4.97;;;15.70;65.00;;;;;;4990193;28;20054;-80
2024/03/06 00:36:26;;;;;;;4.78;4.47;;;15.70;65.30;;;;;;4986526;28;20066;-80
2024/03/06 00:38:51;;;;;;;4.95;4.55;;;15.70;65.00;;;;;;4982534;28;20070;-79
2024/03/06 00:41:17;;;;;;;5.30;4.82;;;15.70;65.10;;;;;;4968671;28;20053;-79
2024/03/06 00:43:43;;;;;;;5.10;4.80;;;15.70;65.00;;;;;;5000240;28;20493;-80
2024/03/06 00:46:08;;;;;;;5.43;5.03;;;15.70;65.00;;;;;;4984035;28;20050;-80
2024/03/06 00:48:34;;;;;;;5.00;4.60;;;15.70;65.10;;;;;;4986203;28;20030;-80
2024/03/06 00:50:59;;;;;;;4.45;4.15;;;15.70;65.20;;;;;;4980812;28;20589;-80
2024/03/06 00:53:25;;;;;;;5.63;5.13;;;15.60;65.30;;;;;;4967578;28;20051;-80
2024/03/06 00:55:51;;;;;;;4.72;4.32;;;15.60;65.10;;;;;;4966160;28;20042;-80
2024/03/06 00:58:16;;;;;;;4.88;4.47;;;15.60;65.10;;;;;;4984207;28;20133;-80
2024/03/06 01:00:42;;;;;;;4.40;4.07;;;15.60;65.30;;;;;;4966500;28;20488;-80
2024/03/06 01:03:07;;;;;;;4.93;4.50;;;15.60;65.20;;;;;;4964814;28;20027;-80
2024/03/06 01:05:33;;;;;;;4.00;3.70;;;15.60;65.30;;;;;;4985739;28;20046;-80
2024/03/06 01:07:59;;;;;;;3.83;3.53;;;15.60;65.30;;;;;;4983988;28;20047;-80
2024/03/06 01:10:25;;;;;;;4.38;3.97;;;15.60;65.40;;;;;;4965846;28;20043;-80
2024/03/06 01:12:50;;;;;;;4.25;3.95;;;15.60;65.40;;;;;;4986929;28;20519;-79
2024/03/06 01:15:16;;;;;;;4.20;3.90;;;15.50;65.40;;;;;;4986411;28;20092;-80
2024/03/06 01:17:41;;;;;;;4.50;4.10;;;15.50;65.30;;;;;;4987166;28;20042;-80
2024/03/06 01:20:08;;;;;;;4.45;4.15;;;15.50;65.40;;;;;;5004719;28;20068;-80
2024/03/06 01:22:34;;;;;;;4.90;4.47;;;15.50;65.40;;;;;;4984792;28;20042;-80
2024/03/06 01:25:00;;;;;;;4.22;3.95;;;15.50;65.60;;;;;;4971163;28;20423;-80
2024/03/06 01:27:26;;;;;;;4.05;3.75;;;15.50;65.60;;;;;;4971080;28;20100;-80
2024/03/06 01:29:51;;;;;;;4.00;3.80;;;15.50;66.30;;;;;;4970686;28;20918;-79
2024/03/06 01:32:17;;;;;;;3.58;3.28;;;15.50;65.80;;;;;;4988174;28;20053;-80
2024/03/06 01:34:43;;;;;;;3.35;3.15;;;15.50;65.70;;;;;;4969606;28;20034;-80
2024/03/06 01:37:08;;;;;;;3.95;3.67;;;15.40;65.50;;;;;;4985123;28;20064;-80
2024/03/06 01:39:35;;;;;;;3.90;3.60;;;15.40;65.60;;;;;;4988816;28;20046;-80
2024/03/06 01:42:01;;;;;;;4.10;3.80;;;15.40;65.80;;;;;;4986743;28;20064;-79
2024/03/06 01:44:26;;;;;;;4.15;3.85;;;15.40;65.60;;;;;;4989962;28;20503;-80
2024/03/06 01:46:52;;;;;;;4.03;3.80;;;15.40;65.80;;;;;;4988659;28;20046;-79
2024/03/06 01:49:18;;;;;;;3.83;3.53;;;15.40;65.90;;;;;;4989795;28;20030;-80
2024/03/06 01:51:48;;;;;;;3.88;3.58;;;15.40;65.80;;;;;;4986605;28;20046;-81
2024/03/06 01:54:13;;;;;;;3.95;3.65;;;15.40;65.90;;;;;;4986783;28;20511;-81
2024/03/06 01:56:41;;;;;;;3.28;3.08;;;15.40;65.90;;;;;;5005248;28;20117;-80
2024/03/06 01:59:07;;;;;;;3.42;3.22;;;15.40;66.60;;;;;;5004213;28;20405;-80
2024/03/06 02:01:32;;;;;;;3.90;3.60;;;15.30;66.30;;;;;;5003344;28;20597;-81
2024/03/06 02:03:58;;;;;;;3.53;3.22;;;15.30;65.80;;;;;;4984531;28;20034;-80
2024/03/06 02:06:24;;;;;;;3.65;3.35;;;15.30;65.90;;;;;;4970936;28;20047;-81
2024/03/06 02:08:50;;;;;;;3.40;3.20;;;15.30;65.70;;;;;;4984412;28;20081;-79
2024/03/06 02:11:16;;;;;;;3.10;2.90;;;15.30;65.90;;;;;;4985918;28;20038;-80
2024/03/06 02:13:43;;;;;;;3.50;3.25;;;15.30;65.90;;;;;;4985705;28;20042;-80
2024/03/06 02:16:09;;;;;;;3.40;3.20;;;15.30;65.90;;;;;;4985158;28;20042;-80
2024/03/06 02:18:34;;;;;;;3.80;3.50;;;15.30;66.00;;;;;;4987185;28;20061;-80
2024/03/06 02:21:00;;;;;;;4.03;3.72;;;15.30;66.00;;;;;;4964870;28;20088;-80
2024/03/06 02:23:26;;;;;;;3.72;3.45;;;15.30;66.10;;;;;;4988792;28;20046;-81
2024/03/06 02:25:51;;;;;;;3.67;3.40;;;15.30;66.00;;;;;;4985620;28;20042;-80
2024/03/06 02:28:17;;;;;;;3.28;3.08;;;15.30;66.10;;;;;;4986319;28;20036;-80
2024/03/06 02:30:43;;;;;;;3.65;3.30;;;15.20;66.10;;;;;;4986253;28;20144;-81
2024/03/06 02:33:11;;;;;;;3.33;3.13;;;15.30;65.90;;;;;;4983919;28;20042;-81
2024/03/06 02:35:39;;;;;;;3.25;2.95;;;15.30;66.00;;;;;;4987025;28;20042;-81
2024/03/06 02:38:05;;;;;;;3.25;3.05;;;15.20;66.00;;;;;;4986757;28;20488;-81
2024/03/06 02:40:31;;;;;;;3.33;3.13;;;15.20;66.90;;;;;;4984088;28;20137;-81
2024/03/06 02:42:56;;;;;;;3.10;2.90;;;15.20;66.20;;;;;;5002145;28;20130;-81
2024/03/06 02:45:22;;;;;;;3.33;3.13;;;15.20;66.00;;;;;;4951886;28;20050;-80
2024/03/06 02:47:48;;;;;;;3.50;3.20;;;15.20;66.00;;;;;;4987970;28;20057;-80
2024/03/06 02:50:13;;;;;;;3.83;3.50;;;15.20;66.10;;;;;;4987516;28;20574;-80
2024/03/06 02:52:39;;;;;;;3.30;3.10;;;15.20;66.30;;;;;;4987721;28;20047;-81
2024/03/06 02:55:05;;;;;;;3.00;2.80;;;15.20;67.10;;;;;;4988557;28;21524;-80
2024/03/06 02:57:31;;;;;;;3.13;2.92;;;15.20;66.00;;;;;;4986108;28;20051;-80
2024/03/06 02:59:57;;;;;;;3.83;3.53;;;15.20;66.30;;;;;;5002208;28;20042;-80
2024/03/06 03:02:23;;;;;;;3.08;2.88;;;15.10;66.10;;;;;;4988850;28;20520;-80
2024/03/06 03:04:52;;;;;;;3.25;3.00;;;15.20;66.20;;;;;;4987687;28;20052;-80
2024/03/06 03:07:19;;;;;;;2.75;2.65;;;15.20;66.20;;;;;;4987191;28;20047;-80
2024/03/06 03:09:45;;;;;;;3.33;3.13;;;15.20;66.30;;;;;;5002171;28;20050;-81
2024/03/06 03:12:11;;;;;;;3.05;2.85;;;15.20;66.90;;;;;;4986440;28;20567;-81
2024/03/06 03:14:37;;;;;;;3.17;2.97;;;15.10;66.20;;;;;;4988305;28;20038;-81
2024/03/06 03:17:03;;;;;;;2.90;2.47;;;15.10;66.20;;;;;;4987590;28;20117;-81
2024/03/06 03:19:29;;;;;;;3.30;3.10;;;15.10;66.20;;;;;;4987575;28;20046;-81
2024/03/06 03:21:54;;;;;;;2.95;2.75;;;15.10;66.10;;;;;;4986005;28;20038;-80
2024/03/06 03:24:21;;;;;;;3.25;3.05;;;15.10;66.20;;;;;;5002584;28;20050;-80
2024/03/06 03:26:47;;;;;;;3.03;2.83;;;15.10;66.20;;;;;;4981103;28;20596;-81
2024/03/06 03:29:12;;;;;;;3.42;3.22;;;15.10;66.20;;;;;;4985329;28;20129;-80
2024/03/06 03:31:38;;;;;;;3.15;2.95;;;15.10;66.30;;;;;;4982293;28;20530;-80
2024/03/06 03:34:05;;;;;;;3.22;2.97;;;15.10;66.30;;;;;;4985404;28;20037;-80
2024/03/06 03:36:31;;;;;;;3.03;2.83;;;15.10;66.30;;;;;;4983825;28;20117;-81
2024/03/06 03:38:56;;;;;;;3.00;2.80;;;15.00;66.20;;;;;;4985683;28;20774;-80
2024/03/06 03:41:22;;;;;;;2.60;2.40;;;15.00;66.20;;;;;;4986355;28;20503;-80
2024/03/06 03:43:47;;;;;;;2.90;2.70;;;15.00;66.30;;;;;;4998762;28;20416;-81
2024/03/06 03:46:13;;;;;;;2.60;2.40;;;15.00;67.00;;;;;;5000823;28;20105;-80
2024/03/06 03:48:39;;;;;;;3.00;2.80;;;15.00;66.30;;;;;;5001858;28;20082;-80
2024/03/06 03:51:06;;;;;;;3.20;3.00;;;15.00;66.30;;;;;;4984000;28;20073;-80
2024/03/06 03:53:35;;;;;;;3.30;3.10;;;15.00;66.20;;;;;;4987387;28;20050;-80
2024/03/06 03:56:01;;;;;;;2.60;2.50;;;15.00;66.30;;;;;;4985125;28;20066;-80
2024/03/06 03:58:26;;;;;;;2.55;2.35;;;15.00;66.20;;;;;;4953968;28;20061;-81
2024/03/06 04:00:55;;;;;;;3.05;2.85;;;15.00;66.20;;;;;;4985923;28;20042;-80
2024/03/06 04:03:21;;;;;;;3.03;2.83;;;15.00;66.30;;;;;;4966349;28;20022;-80
2024/03/06 04:05:48;;;;;;;2.70;2.50;;;15.00;66.70;;;;;;5002405;28;20065;-81
2024/03/06 04:08:13;;;;;;;2.88;2.78;;;15.00;66.30;;;;;;4986425;28;20062;-81
2024/03/06 04:10:39;;;;;;;2.63;2.42;;;15.00;66.20;;;;;;4986485;28;20112;-80
2024/03/06 04:13:04;;;;;;;3.13;2.92;;;15.00;66.50;;;;;;4986085;28;20734;-80
2024/03/06 04:15:30;;;;;;;2.63;2.45;;;15.00;66.30;;;;;;5001935;28;20031;-80
2024/03/06 04:17:56;;;;;;;2.70;2.58;;;15.00;66.30;;;;;;4984311;28;20050;-79
2024/03/06 04:20:22;;;;;;;2.60;2.50;;;15.00;66.30;;;;;;4983923;28;20161;-80
2024/03/06 04:22:50;;;;;;;2.58;2.47;;;15.00;66.40;;;;;;4966399;28;20050;-80
2024/03/06 04:25:15;;;;;;;2.42;2.33;;;15.00;66.40;;;;;;4967253;28;20060;-80
2024/03/06 04:27:41;;;;;;;2.60;2.50;;;15.00;66.50;;;;;;4967417;28;20567;-81
2024/03/06 04:30:07;;;;;;;2.40;2.30;;;14.90;66.40;;;;;;5001643;28;20133;-79
2024/03/06 04:32:33;;;;;;;2.72;2.53;;;15.00;66.30;;;;;;4986472;28;20053;-79
2024/03/06 04:34:58;;;;;;;2.60;2.50;;;14.90;66.20;;;;;;4984933;28;20038;-79
2024/03/06 04:37:26;;;;;;;2.50;2.40;;;14.90;66.50;;;;;;4967967;28;20057;-79
2024/03/06 04:39:52;;;;;;;2.20;2.10;;;14.90;66.30;;;;;;4986176;28;20097;-80
2024/03/06 04:42:17;;;;;;;2.50;2.40;;;14.90;66.30;;;;;;4982043;28;20062;-81
2024/03/06 04:44:43;;;;;;;2.53;2.35;;;14.90;66.40;;;;;;4984370;28;20539;-79
2024/03/06 04:47:08;;;;;;;2.50;2.30;;;14.90;66.30;;;;;;4989369;28;20055;-79
2024/03/06 04:49:34;;;;;;;2.30;2.20;;;14.90;66.30;;;;;;4989200;28;20046;-80
2024/03/06 04:52:00;;;;;;;2.00;1.90;;;14.90;66.40;;;;;;4971027;28;20073;-79
2024/03/06 04:54:26;;;;;;;2.17;2.08;;;14.90;66.30;;;;;;4987117;28;20066;-80
2024/03/06 04:56:51;;;;;;;2.28;2.17;;;14.90;66.30;;;;;;4989938;28;20168;-80
2024/03/06 04:59:17;;;;;;;2.28;2.17;;;14.90;66.10;;;;;;4989472;28;20504;-80
2024/03/06 05:01:44;;;;;;;2.92;2.72;;;14.90;66.10;;;;;;4987899;28;20427;-80
2024/03/06 05:04:10;;;;;;;2.55;2.35;;;14.90;66.10;;;;;;4987163;28;20069;-80
2024/03/06 05:06:36;;;;;;;2.38;2.17;;;14.90;66.00;;;;;;4987691;28;20093;-80
2024/03/06 05:09:03;;;;;;;2.40;2.30;;;14.90;65.90;;;;;;4989558;28;20066;-79
2024/03/06 05:11:29;;;;;;;2.40;2.30;;;14.90;65.80;;;;;;4987928;28;20484;-80
2024/03/06 05:13:55;;;;;;;2.25;2.13;;;14.90;65.70;;;;;;4990421;28;20046;-80
2024/03/06 05:16:23;;;;;;;2.20;2.10;;;14.90;65.80;;;;;;4988283;28;20388;-80
2024/03/06 05:18:49;;;;;;;1.95;1.85;;;14.90;65.70;;;;;;4987216;28;20042;-80
2024/03/06 05:21:15;;;;;;;2.38;2.28;;;14.90;65.70;;;;;;4987677;28;20121;-79
2024/03/06 05:23:40;;;;;;;1.98;1.88;;;14.90;65.80;;;;;;4990954;28;20125;-80
2024/03/06 05:26:06;;;;;;;2.17;2.08;;;14.90;65.70;;;;;;4969590;28;20416;-79
2024/03/06 05:28:31;;;;;;;2.20;2.10;;;14.90;65.70;;;;;;4988369;28;20046;-79
2024/03/06 05:30:57;;;;;;;1.90;1.80;;;14.90;65.70;;;;;;4987361;28;20050;-80
2024/03/06 05:33:23;;;;;;;1.90;1.80;;;14.90;65.70;;;;;;4988680;28;20519;-80
2024/03/06 05:35:48;;;;;;;1.70;1.60;;;14.90;66.50;;;;;;4989497;28;20065;-80
2024/03/06 05:38:14;;;;;;;2.03;1.92;;;14.90;65.50;;;;;;4989143;28;20046;-79
2024/03/06 05:40:41;;;;;;;2.08;1.98;;;14.90;65.70;;;;;;4986153;28;20027;-79
2024/03/06 05:43:07;;;;;;;2.30;2.00;;;14.90;65.70;;;;;;4987980;28;20570;-79
2024/03/06 05:45:32;;;;;;;1.92;1.83;;;14.90;65.70;;;;;;4988379;28;20045;-80
2024/03/06 05:47:58;;;;;;;2.10;2.00;;;14.90;65.80;;;;;;5004048;28;20122;-81
2024/03/06 05:50:23;;;;;;;2.08;1.98;;;14.90;65.70;;;;;;4988415;28;20140;-81
2024/03/06 05:52:49;;;;;;;2.25;2.15;;;14.90;65.70;;;;;;4989158;28;20038;-80
2024/03/06 05:55:15;;;;;;;2.13;2.03;;;14.80;65.50;;;;;;4953386;28;20074;-80
2024/03/06 05:57:45;;;;;;;2.35;2.17;;;14.90;65.70;;;;;;4982584;28;20477;-81
2024/03/06 06:00:11;;;;;;;2.22;2.13;;;14.90;65.60;;;;;;4968507;28;20045;-80
2024/03/06 06:02:37;;;;;;;2.53;2.33;;;14.90;65.90;;;;;;4970015;28;20046;-79
2024/03/06 06:05:04;;;;;;;2.22;2.13;;;14.90;65.80;;;;;;4971910;28;20524;-80
2024/03/06 06:07:29;;;;;;;2.30;2.20;;;14.90;65.60;;;;;;4987909;28;20135;-81
2024/03/06 06:09:55;;;;;;;2.10;2.00;;;14.90;65.80;;;;;;4986484;28;20466;-80
2024/03/06 06:12:20;;;;;;;2.22;2.00;;;14.90;65.80;;;;;;4968258;28;20053;-81
2024/03/06 06:14:46;;;;;;;2.20;2.10;;;14.90;65.70;;;;;;4970262;28;20042;-82
2024/03/06 06:17:13;;;;;;;1.90;1.80;;;14.90;65.70;;;;;;4987903;28;20030;-80
2024/03/06 06:19:41;;;;;;;1.85;1.75;;;14.90;65.60;;;;;;4984834;28;20061;-80
2024/03/06 06:22:06;;;;;;;2.10;2.00;;;14.90;65.50;;;;;;4969420;28;20064;-79
2024/03/06 06:24:32;;;;;;;2.10;2.00;;;14.90;65.60;;;;;;4970448;28;20125;-81
2024/03/06 06:26:58;;;;;;;2.10;2.00;;;14.90;65.50;;;;;;5001213;28;20038;-79
2024/03/06 06:29:23;;;;;;;2.35;2.17;;;14.90;65.60;;;;;;4985672;28;20053;-80
2024/03/06 06:31:49;;;;;;;3.05;1.73;;;14.80;65.40;;;;;;4983874;28;20496;-80
2024/03/06 06:34:14;;;;;;;1.95;1.85;;;14.80;65.40;;;;;;4984291;28;20030;-80
2024/03/06 06:36:45;;;;;;;1.80;1.70;;;14.80;65.40;;;;;;4985885;28;20129;-80
2024/03/06 06:39:12;;;;;;;1.90;1.80;;;14.80;65.50;;;;;;4984643;28;20128;-79
2024/03/06 06:41:37;;;;;;;2.10;2.00;;;14.80;65.60;;;;;;4986646;28;20066;-81
2024/03/06 06:44:03;;;;;;;1.60;1.50;;;14.80;67.10;;;;;;4986821;28;20078;-80
2024/03/06 06:46:29;;;;;;;1.73;1.63;;;14.80;67.20;;;;;;4984852;28;20420;-80
2024/03/06 06:48:54;;;;;;;1.67;1.58;;;14.80;67.40;;;;;;4985992;28;20046;-80
2024/03/06 06:51:20;;;;;;;1.85;1.75;;;14.80;67.60;;;;;;4984097;28;20049;-79
2024/03/06 06:53:46;;;;;;;2.00;1.85;;;14.80;67.70;;;;;;4988405;28;20141;-80
2024/03/06 06:56:12;;;;;;;2.10;2.00;;;14.80;67.90;;;;;;4987899;28;20595;-79
2024/03/06 06:58:37;;;;;;;1.90;1.80;;;14.80;68.00;;;;;;4982296;28;20458;-80
2024/03/06 07:01:03;;;;;;;1.95;1.85;;;14.80;68.10;;;;;;4984443;28;20057;-79
2024/03/06 07:03:29;;;;;;;2.75;2.17;;;14.80;68.20;;;;;;4984445;28;20060;-80
2024/03/06 07:05:56;;;;;;;1.50;1.50;;;14.80;68.30;;;;;;4985432;28;20046;-81
2024/03/06 07:08:22;;;;;;;1.60;1.50;;;14.80;68.20;;;;;;4968812;28;20936;-80
2024/03/06 07:10:48;;;;;;;1.73;1.63;;;14.80;68.20;;;;;;4983565;28;20044;-80
2024/03/06 07:13:14;;;;;;;2.13;2.03;;;14.80;67.90;;;;;;4968263;28;20610;-79
2024/03/06 07:15:39;;;;;;;2.20;2.10;;;14.80;68.20;;;;;;4987145;28;20065;-79
2024/03/06 07:18:05;;;;;;;1.90;1.80;;;14.80;67.90;;;;;;4984867;28;20689;-80
2024/03/06 07:20:31;;;;;;;2.15;2.00;;;14.80;67.90;;;;;;4979060;28;20415;-80
2024/03/06 07:22:57;;;;;;;1.73;1.63;;;14.80;67.70;;;;;;4983394;28;20054;-80
2024/03/06 07:25:23;;;;;;;1.73;1.52;;;14.80;67.80;;;;;;4966284;28;20054;-80
2024/03/06 07:27:48;;;;;;;1.90;1.80;;;14.80;67.20;;;;;;4986898;28;20041;-80
2024/03/06 07:30:14;;;;;;;2.95;1.60;;;14.80;67.10;;;;;;4986262;28;20101;-80
2024/03/06 07:32:40;;;;;;;1.95;1.85;;;14.80;67.90;;;;;;5001379;28;20436;-82
2024/03/06 07:35:06;;;;;;;5.60;1.98;;;14.90;67.60;;;;;;4983760;28;20077;-81
2024/03/06 07:37:33;;;;;;;2.00;1.90;;;14.90;67.50;;;;;;4984474;28;20053;-80
2024/03/06 07:39:59;;;;;;;2.95;1.63;;;14.90;68.40;;;;;;4987621;28;20417;-80
2024/03/06 07:42:25;;;;;;;1.75;1.65;;;14.90;67.90;;;;;;4984744;28;20096;-79
2024/03/06 07:44:51;;;;;;;7.63;1.80;;;15.00;68.60;;;;;;4980575;28;20047;-80
2024/03/06 07:47:16;;;;;;;1.98;1.70;;;14.90;67.70;;;;;;4970572;28;20061;-79
2024/03/06 07:49:44;;;;;;;1.95;1.58;;;14.90;67.60;;;;;;4986012;28;20057;-80
2024/03/06 07:52:10;;;;;;;3.58;2.10;;;14.90;67.30;;;;;;5000604;28;20042;-79
2024/03/06 07:54:36;;;;;;;3.17;2.35;;;14.90;67.60;;;;;;4985842;28;20088;-80
2024/03/06 07:57:01;;;;;;;2.25;2.00;;;15.00;68.00;;;;;;4983954;28;20050;-80
2024/03/06 07:59:27;;;;;;;2.35;2.15;;;14.90;68.40;;;;;;4987267;28;20121;-79
2024/03/06 08:01:52;;;;;;;2.13;2.03;;;14.90;67.60;;;;;;4986136;28;20125;-79
2024/03/06 08:04:18;;;;;;;1.85;1.75;;;14.90;67.50;;;;;;4985356;28;20197;-78
2024/03/06 08:06:43;;;;;;;1.88;1.77;;;14.90;67.50;;;;;;4999173;28;20432;-80
2024/03/06 08:09:09;;;;;;;1.80;1.70;;;14.80;67.60;;;;;;4986075;28;20574;-79
2024/03/06 08:11:35;;;;;;;1.85;1.75;;;14.80;67.50;;;;;;4986718;28;20104;-79
2024/03/06 08:14:01;;;;;;;2.85;1.77;;;14.90;67.40;;;;;;4985625;28;20107;-80
2024/03/06 08:16:27;;;;;;;2.35;1.60;;;14.90;67.30;;;;;;4984706;28;20050;-79
2024/03/06 08:18:53;;;;;;;1.83;1.73;;;14.80;67.20;;;;;;4986686;28;20084;-79
2024/03/06 08:21:19;;;;;;;1.50;1.40;;;14.80;67.20;;;;;;4983393;28;20053;-79
2024/03/06 08:23:47;;;;;;;2.10;1.92;;;14.80;67.20;;;;;;4966338;28;20034;-79
2024/03/06 08:26:12;;;;;;;1.75;1.65;;;14.90;67.30;;;;;;4983372;28;20054;-80
2024/03/06 08:28:38;;;;;;;1.55;1.45;;;14.90;67.30;;;;;;4985172;28;20031;-80
2024/03/06 08:31:04;;;;;;;1.50;1.40;;;14.90;67.30;;;;;;4986007;28;20069;-79
2024/03/06 08:33:29;;;;;;;1.75;1.65;;;14.80;67.90;;;;;;4982671;28;20046;-80
2024/03/06 08:35:55;;;;;;;2.33;1.55;;;14.90;67.20;;;;;;4983617;28;20471;-79
2024/03/06 08:38:20;;;;;;;1.40;1.30;;;14.90;67.20;;;;;;4982471;28;20116;-79
2024/03/06 08:40:46;;;;;;;1.60;1.50;;;14.80;67.00;;;;;;4985883;28;20077;-80
2024/03/06 08:43:12;;;;;;;1.45;1.35;;;14.90;67.20;;;;;;4982892;28;20050;-80
2024/03/06 08:45:38;;;;;;;2.92;1.60;;;14.90;67.20;;;;;;4985318;28;20042;-79
2024/03/06 08:48:05;;;;;;;1.67;1.58;;;14.90;67.30;;;;;;4986210;28;20049;-79
2024/03/06 08:50:31;;;;;;;2.42;1.30;;;14.90;67.30;;;;;;4983556;28;20070;-80
2024/03/06 08:52:56;;;;;;;2.22;1.50;;;14.90;67.40;;;;;;4986862;28;20047;-79
2024/03/06 08:55:22;;;;;;;1.13;1.10;;;14.90;67.30;;;;;;4983607;28;20133;-79
2024/03/06 08:57:47;;;;;;;1.30;1.20;;;15.00;67.20;;;;;;4984280;28;20038;-79
2024/03/06 09:00:14;;;;;;;1.40;1.30;;;15.00;67.10;;;;;;4983424;28;20515;-79
2024/03/06 09:02:40;;;;;;;1.77;1.40;;;15.00;67.10;;;;;;5001091;28;20042;-80
2024/03/06 09:05:06;;;;;;;1.95;1.73;;;15.10;66.90;;;;;;4985275;28;20034;-80
2024/03/06 09:07:37;;;;;;;1.13;1.13;;;15.10;66.90;;;;;;4985007;28;20088;-80
2024/03/06 09:10:04;;;;;;;1.40;1.30;;;15.10;66.70;;;;;;4999766;28;20074;-79
2024/03/06 09:12:31;;;;;;;1.95;1.40;;;15.10;66.60;;;;;;4981072;28;20050;-80
2024/03/06 09:14:56;;;;;;;1.88;1.50;;;15.20;66.60;;;;;;4983756;28;20050;-80
2024/03/06 09:17:22;;;;;;;1.23;1.13;;;15.20;66.60;;;;;;4984239;28;20054;-80
2024/03/06 09:19:47;;;;;;;1.60;1.48;;;15.20;66.50;;;;;;4964589;28;20090;-79
2024/03/06 09:22:13;;;;;;;1.17;1.17;;;15.30;66.40;;;;;;4995560;28;20050;-79
2024/03/06 09:24:38;;;;;;;1.67;1.58;;;15.30;66.30;;;;;;4984651;28;20047;-80
2024/03/06 09:27:04;;;;;;;1.00;1.00;;;15.30;66.20;;;;;;4990203;28;20049;-79
2024/03/06 09:29:30;;;;;;;1.63;1.52;;;15.40;66.10;;;;;;4986301;28;20408;-80
2024/03/06 09:31:55;;;;;;;1.17;1.17;;;15.40;66.00;;;;;;4985625;28;20034;-80
2024/03/06 09:34:21;;;;;;;2.10;1.40;;;15.50;66.40;;;;;;5003196;28;20080;-79
2024/03/06 09:36:48;;;;;;;1.42;1.33;;;15.50;65.60;;;;;;5002751;28;20049;-80
2024/03/06 09:39:17;;;;;;;1.17;1.08;;;15.50;65.50;;;;;;4954588;28;20050;-79
2024/03/06 09:41:46;;;;;;;1.52;1.42;;;15.60;65.30;;;;;;4953716;28;20530;-79
2024/03/06 09:44:12;;;;;;;1.00;1.00;;;15.60;65.40;;;;;;4986733;28;20523;-80
2024/03/06 09:46:37;;;;;;;1.83;1.45;;;15.60;66.20;;;;;;4986612;28;20046;-80
2024/03/06 09:49:03;;;;;;;1.40;1.30;;;15.70;65.50;;;;;;5002579;28;20046;-79
2024/03/06 09:51:30;;;;;;;1.80;0.95;;;15.70;65.50;;;;;;4979614;28;20101;-79
2024/03/06 09:53:55;;;;;;;1.45;1.35;;;15.70;65.80;;;;;;4986379;28;20060;-80
2024/03/06 09:56:21;;;;;;;1.35;1.25;;;15.80;65.30;;;;;;4986858;28;20516;-79
2024/03/06 09:58:46;;;;;;;1.55;1.30;;;15.80;65.30;;;;;;4986594;28;20050;-80
2024/03/06 10:01:16;;;;;;;2.03;1.40;;;15.90;65.20;;;;;;5002717;28;20035;-79
2024/03/06 10:03:41;;;;;;;1.10;1.00;;;15.90;65.20;;;;;;4971275;28;20030;-79
2024/03/06 10:06:07;;;;;;;1.17;1.13;;;15.90;65.30;;;;;;4986283;28;20046;-79
2024/03/06 10:08:33;;;;;;;1.40;1.30;;;15.90;65.10;;;;;;5003297;28;20096;-79
2024/03/06 10:10:59;;;;;;;2.55;1.55;;;15.90;65.30;;;;;;4985761;28;20054;-79
2024/03/06 10:13:25;;;;;;;1.83;1.40;;;16.00;65.10;;;;;;4987114;28;20046;-79
2024/03/06 10:16:01;;;;;;;2.00;1.00;;;16.00;65.00;;;;;;4968531;28;20054;-79
2024/03/06 10:18:27;;;;;;;1.13;1.02;;;16.00;65.00;;;;;;4983390;28;20046;-79
2024/03/06 10:20:53;;;;;;;1.55;1.40;;;16.00;65.00;;;;;;4986711;28;20989;-79
2024/03/06 10:23:19;;;;;;;1.20;1.10;;;16.00;64.90;;;;;;4969864;28;20633;-79
2024/03/06 10:25:46;;;;;;;0.98;0.98;;;16.00;65.00;;;;;;4969304;28;20066;-80
2024/03/06 10:28:11;;;;;;;1.20;1.10;;;16.00;65.00;;;;;;4985819;28;20038;-79
2024/03/06 10:30:45;;;;;;;1.17;1.08;;;16.10;65.00;;;;;;4967351;28;20408;-79
2024/03/06 10:33:11;;;;;;;1.50;1.40;;;16.10;64.90;;;;;;4980381;28;20515;-79
2024/03/06 10:35:37;;;;;;;1.13;1.10;;;16.10;64.90;;;;;;4969473;28;20042;-80
2024/03/06 10:38:04;;;;;;;1.13;1.02;;;16.10;64.90;;;;;;4994796;28;20574;-80
2024/03/06 10:40:33;;;;;;;1.25;1.15;;;16.20;64.80;;;;;;4986363;28;20074;-80
2024/03/06 10:43:00;;;;;;;1.02;1.02;;;16.10;64.80;;;;;;4983884;28;20101;-80
2024/03/06 10:45:43;;;;;;;0.95;0.90;;;16.20;65.70;;;;;;4986792;28;20047;-80
2024/03/06 10:48:12;;;;;;;1.08;0.95;;;16.20;64.80;;;;;;4984822;28;20602;-79
2024/03/06 10:50:40;;;;;;;2.72;1.27;;;16.20;64.80;;;;;;4985885;28;20046;-80
2024/03/06 10:53:08;;;;;;;1.27;1.10;;;16.20;64.90;;;;;;5002507;28;20031;-80
2024/03/06 10:55:35;;;;;;;1.00;1.00;;;16.30;64.90;;;;;;4985739;28;20492;-80
2024/03/06 10:58:00;;;;;;;1.20;1.10;;;16.20;65.50;;;;;;4968988;28;20129;-80
2024/03/06 11:00:28;;;;;;;1.10;0.95;;;16.30;64.70;;;;;;5002028;28;20423;-79
2024/03/06 11:02:54;;;;;;;1.40;1.30;;;16.30;64.70;;;;;;4983984;28;20042;-80
2024/03/06 11:05:19;;;;;;;1.55;1.13;;;16.30;64.70;;;;;;4983547;28;20031;-80
2024/03/06 11:07:45;;;;;;;1.33;0.93;;;16.30;64.70;;;;;;4984216;28;20068;-80
2024/03/06 11:10:16;;;;;;;1.20;1.10;;;16.30;64.70;;;;;;4999998;28;20034;-80
2024/03/06 11:12:44;;;;;;;1.27;0.90;;;16.30;64.60;;;;;;4966113;28;20486;-80
2024/03/06 11:15:14;;;;;;;0.82;0.82;;;16.30;64.60;;;;;;4999495;28;20057;-80
2024/03/06 11:17:39;;;;;;;1.17;1.08;;;16.30;64.70;;;;;;4983558;28;20038;-80
2024/03/06 11:20:09;;;;;;;1.38;1.00;;;16.20;64.70;;;;;;4984114;28;20101;-80
2024/03/06 11:23:02;;;;;;;1.23;1.13;;;16.30;64.70;;;;;;4982677;28;20484;-80
2024/03/06 11:25:55;;;;;;;1.00;0.90;;;16.20;64.70;;;;;;4998110;28;20050;-80
2024/03/06 11:28:21;;;;;;;1.67;1.00;;;16.20;64.70;;;;;;4980389;28;20042;-79
2024/03/06 11:30:59;;;;;;;0.82;0.82;;;16.20;64.70;;;;;;4984269;28;20570;-80
2024/03/06 11:33:46;;;;;;;0.65;0.63;;;16.20;64.70;;;;;;4981618;28;20076;-79
2024/03/06 11:36:25;;;;;;;0.80;0.77;;;16.20;64.70;;;;;;4983047;28;20500;-80
2024/03/06 11:39:06;;;;;;;0.93;0.90;;;16.20;64.70;;;;;;4982124;28;20105;-80
2024/03/06 11:41:35;;;;;;;1.17;0.98;;;16.20;64.60;;;;;;4981547;28;20042;-80
2024/03/06 11:44:01;;;;;;;1.02;0.70;;;16.20;64.70;;;;;;4985281;28;20530;-80
2024/03/06 11:46:42;;;;;;;1.05;0.95;;;16.20;64.60;;;;;;4998305;28;20084;-79
2024/03/06 11:49:20;;;;;;;0.70;0.70;;;16.30;64.60;;;;;;4981389;28;20053;-80
2024/03/06 11:51:46;;;;;;;0.85;0.85;;;16.30;64.50;;;;;;4981449;28;20058;-80
2024/03/06 11:54:12;;;;;;;0.75;0.75;;;16.30;64.40;;;;;;4981622;28;20031;-80
2024/03/06 11:56:44;;;;;;;0.85;0.85;;;16.30;64.40;;;;;;4999242;28;20041;-80
2024/03/06 11:59:12;;;;;;;1.10;0.75;;;16.30;65.30;;;;;;4999291;28;20070;-80
2024/03/06 12:01:37;;;;;;;0.70;0.68;;;16.30;64.50;;;;;;4982197;28;20050;-80
2024/03/06 12:04:06;;;;;;;0.80;0.80;;;16.30;64.40;;;;;;4966687;28;20042;-80
2024/03/06 12:06:35;;;;;;;0.77;0.77;;;16.30;64.40;;;;;;4983409;28;20099;-80
2024/03/06 12:09:00;;;;;;;0.70;0.70;;;16.30;64.40;;;;;;4982924;28;20426;-80
2024/03/06 12:11:28;;;;;;;1.02;0.95;;;16.30;64.40;;;;;;4991780;28;20109;-80
2024/03/06 12:13:53;;;;;;;1.20;1.10;;;16.30;64.40;;;;;;4983275;28;20513;-80
2024/03/06 12:16:19;;;;;;;0.90;0.90;;;16.30;64.50;;;;;;4964600;28;21131;-80
2024/03/06 12:18:45;;;;;;;0.80;0.80;;;16.20;64.40;;;;;;4997736;28;20045;-80
2024/03/06 12:21:10;;;;;;;0.93;0.70;;;16.30;64.40;;;;;;4983013;28;20042;-80
2024/03/06 12:23:36;;;;;;;0.88;0.88;;;16.30;64.40;;;;;;4998856;28;20480;-80
2024/03/06 12:26:11;;;;;;;0.82;0.80;;;16.30;64.40;;;;;;4984804;28;20042;-80
2024/03/06 12:28:37;;;;;;;0.52;0.52;;;16.20;64.50;;;;;;4980396;28;20042;-80
2024/03/06 12:31:04;;;;;;;0.70;0.65;;;16.20;64.60;;;;;;4983126;28;20049;-80
2024/03/06 12:33:29;;;;;;;1.15;0.98;;;16.20;64.50;;;;;;4981762;28;20046;-79
2024/03/06 12:36:10;;;;;;;1.00;0.90;;;16.20;65.30;;;;;;4983279;28;20057;-80
2024/03/06 12:38:36;;;;;;;1.83;0.70;;;16.20;64.60;;;;;;4982841;28;20038;-80
2024/03/06 12:41:01;;;;;;;0.80;0.75;;;16.20;64.60;;;;;;4981506;28;20048;-80
2024/03/06 12:43:28;;;;;;;0.60;0.60;;;16.20;64.50;;;;;;4997681;28;20416;-79
2024/03/06 12:45:54;;;;;;;0.98;0.85;;;16.20;64.50;;;;;;4979641;28;20088;-80